createdAt,value
2019-01-16T00:00:34.982Z,424
2019-01-16T00:01:41.920Z,424
2019-01-16T00:02:48.859Z,425
2019-01-16T00:03:55.806Z,424
2019-01-16T00:05:03.016Z,425
2019-01-16T00:06:10.218Z,424
2019-01-16T00:07:17.466Z,424
2019-01-16T00:08:24.678Z,423
2019-01-16T00:09:31.880Z,424
2019-01-16T00:10:39.085Z,423
2019-01-16T00:11:45.756Z,424
2019-01-16T00:12:52.984Z,424
2019-01-16T00:13:59.918Z,424
2019-01-16T00:15:07.123Z,424
2019-01-16T00:16:14.325Z,425
2019-01-16T00:17:21.524Z,425
2019-01-16T00:18:28.734Z,424
2019-01-16T00:19:35.945Z,425
2019-01-16T00:20:43.156Z,425
2019-01-16T00:21:50.357Z,424
2019-01-16T00:22:57.565Z,424
2019-01-16T00:24:04.765Z,425
2019-01-16T00:25:11.965Z,425
2019-01-16T00:26:18.903Z,425
2019-01-16T00:27:26.114Z,425
2019-01-16T00:28:33.054Z,426
2019-01-16T00:29:40.259Z,424
2019-01-16T00:30:47.244Z,425
2019-01-16T00:31:54.439Z,424
2019-01-16T00:33:01.389Z,424
2019-01-16T00:34:08.312Z,425
2019-01-16T00:35:15.237Z,424
2019-01-16T00:36:22.438Z,426
2019-01-16T00:37:29.638Z,426
2019-01-16T00:38:36.576Z,426
2019-01-16T00:39:43.795Z,425
2019-01-16T00:40:50.997Z,426
2019-01-16T00:41:57.927Z,424
2019-01-16T00:43:04.869Z,426
2019-01-16T00:44:12.084Z,424
2019-01-16T00:45:19.295Z,425
2019-01-16T00:46:26.505Z,425
2019-01-16T00:47:33.912Z,426
2019-01-16T00:48:41.119Z,426
2019-01-16T00:49:48.324Z,425
2019-01-16T00:50:55.535Z,425
2019-01-16T00:52:02.745Z,425
2019-01-16T00:53:09.955Z,425
2019-01-16T00:54:17.173Z,425
2019-01-16T00:55:24.428Z,425
2019-01-16T00:56:31.608Z,424
2019-01-16T00:57:38.818Z,426
2019-01-16T00:58:45.743Z,426
2019-01-16T00:59:52.959Z,424
2019-01-16T01:01:01.861Z,424
2019-01-16T01:02:09.134Z,423
2019-01-16T01:03:16.329Z,427
2019-01-16T01:04:23.528Z,431
2019-01-16T01:05:30.733Z,434
2019-01-16T01:06:37.654Z,433
2019-01-16T01:07:44.891Z,432
2019-01-16T01:08:51.834Z,432
2019-01-16T01:09:59.045Z,432
2019-01-16T01:11:06.246Z,432
2019-01-16T01:12:13.480Z,432
2019-01-16T01:13:20.715Z,432
2019-01-16T01:14:27.663Z,433
2019-01-16T01:15:34.861Z,433
2019-01-16T01:16:42.093Z,432
2019-01-16T01:17:49.294Z,432
2019-01-16T01:18:56.224Z,432
2019-01-16T01:20:03.178Z,432
2019-01-16T01:21:10.371Z,432
2019-01-16T01:22:17.572Z,432
2019-01-16T01:23:24.788Z,433
2019-01-16T01:24:32.000Z,433
2019-01-16T01:25:38.928Z,432
2019-01-16T01:26:46.155Z,432
2019-01-16T01:27:53.361Z,429
2019-01-16T01:29:00.566Z,428
2019-01-16T01:30:07.764Z,430
2019-01-16T01:31:14.692Z,429
2019-01-16T01:32:22.125Z,429
2019-01-16T01:33:29.036Z,430
2019-01-16T01:34:36.236Z,430
2019-01-16T01:35:43.181Z,431
2019-01-16T01:36:50.383Z,431
2019-01-16T01:37:57.336Z,432
2019-01-16T01:39:04.541Z,431
2019-01-16T01:40:11.741Z,433
2019-01-16T01:41:18.949Z,430
2019-01-16T01:42:26.159Z,430
2019-01-16T01:43:33.368Z,432
2019-01-16T01:44:40.571Z,433
2019-01-16T01:45:47.784Z,432
2019-01-16T01:46:54.982Z,432
2019-01-16T01:48:01.906Z,433
2019-01-16T01:49:09.129Z,432
2019-01-16T01:50:16.051Z,431
2019-01-16T01:51:23.259Z,431
2019-01-16T01:52:30.460Z,432
2019-01-16T01:53:37.403Z,432
2019-01-16T01:54:44.070Z,432
2019-01-16T01:55:51.267Z,431
2019-01-16T01:56:58.223Z,431
2019-01-16T01:58:05.449Z,432
2019-01-16T01:59:12.366Z,433
2019-01-16T02:00:19.025Z,432
2019-01-16T02:01:26.230Z,432
2019-01-16T02:02:33.433Z,433
2019-01-16T02:03:40.635Z,433
2019-01-16T02:04:47.572Z,433
2019-01-16T02:05:54.498Z,434
2019-01-16T02:07:01.698Z,434
2019-01-16T02:08:08.906Z,433
2019-01-16T02:09:16.125Z,435
2019-01-16T02:10:23.326Z,439
2019-01-16T02:11:30.530Z,441
2019-01-16T02:12:37.736Z,441
2019-01-16T02:13:44.959Z,442
2019-01-16T02:14:51.881Z,442
2019-01-16T02:15:59.092Z,443
2019-01-16T02:17:06.017Z,442
2019-01-16T02:18:12.966Z,442
2019-01-16T02:19:20.166Z,441
2019-01-16T02:20:27.097Z,441
2019-01-16T02:21:34.027Z,441
2019-01-16T02:22:41.233Z,439
2019-01-16T02:23:48.441Z,437
2019-01-16T02:24:55.393Z,435
2019-01-16T02:26:02.591Z,436
2019-01-16T02:27:09.801Z,434
2019-01-16T02:28:16.735Z,434
2019-01-16T02:29:23.947Z,434
2019-01-16T02:30:31.169Z,434
2019-01-16T02:31:38.378Z,431
2019-01-16T02:32:45.592Z,432
2019-01-16T02:33:52.787Z,430
2019-01-16T02:34:59.983Z,429
2019-01-16T02:36:06.654Z,427
2019-01-16T02:37:13.585Z,425
2019-01-16T02:38:20.804Z,426
2019-01-16T02:39:27.743Z,425
2019-01-16T02:40:34.948Z,424
2019-01-16T02:41:42.140Z,423
2019-01-16T02:42:49.360Z,423
2019-01-16T02:43:56.287Z,422
2019-01-16T02:45:03.502Z,421
2019-01-16T02:46:10.438Z,422
2019-01-16T02:47:17.633Z,421
2019-01-16T02:48:24.286Z,418
2019-01-16T02:49:31.209Z,417
2019-01-16T02:50:38.427Z,416
2019-01-16T02:51:45.629Z,417
2019-01-16T02:52:52.555Z,417
2019-01-16T02:53:59.772Z,416
2019-01-16T02:55:06.701Z,415
2019-01-16T02:56:13.915Z,414
2019-01-16T02:57:21.124Z,413
2019-01-16T02:58:28.328Z,413
2019-01-16T02:59:35.254Z,412
2019-01-16T03:00:42.463Z,410
2019-01-16T03:01:49.399Z,410
2019-01-16T03:02:56.608Z,409
2019-01-16T03:04:03.810Z,410
2019-01-16T03:05:10.763Z,407
2019-01-16T03:06:17.705Z,406
2019-01-16T03:07:24.670Z,404
2019-01-16T03:08:31.608Z,403
2019-01-16T03:09:38.805Z,402
2019-01-16T03:10:45.743Z,401
2019-01-16T03:11:52.946Z,400
2019-01-16T03:13:00.148Z,398
2019-01-16T03:14:07.343Z,397
2019-01-16T03:15:14.031Z,397
2019-01-16T03:16:21.243Z,395
2019-01-16T03:17:28.442Z,395
2019-01-16T03:18:35.644Z,395
2019-01-16T03:19:42.850Z,396
2019-01-16T03:20:49.767Z,396
2019-01-16T03:21:56.966Z,395
2019-01-16T03:23:04.389Z,396
2019-01-16T03:24:11.334Z,395
2019-01-16T03:25:18.255Z,395
2019-01-16T03:26:25.468Z,395
2019-01-16T03:27:32.670Z,403
2019-01-16T03:28:39.878Z,403
2019-01-16T03:29:47.074Z,402
2019-01-16T03:30:53.724Z,400
2019-01-16T03:32:00.958Z,398
2019-01-16T03:33:08.166Z,397
2019-01-16T03:34:15.121Z,396
2019-01-16T03:35:22.525Z,395
2019-01-16T03:36:29.734Z,395
2019-01-16T03:37:36.941Z,395
2019-01-16T03:38:44.085Z,394
2019-01-16T03:39:51.288Z,395
2019-01-16T03:40:58.487Z,395
2019-01-16T03:42:05.688Z,395
2019-01-16T03:43:12.901Z,396
2019-01-16T03:44:19.542Z,396
2019-01-16T03:45:26.748Z,395
2019-01-16T03:46:33.953Z,396
2019-01-16T03:47:41.157Z,396
2019-01-16T03:48:48.381Z,396
2019-01-16T03:49:55.584Z,396
2019-01-16T03:51:02.796Z,395
2019-01-16T03:52:09.721Z,395
2019-01-16T03:53:16.928Z,396
2019-01-16T03:54:23.880Z,395
2019-01-16T03:55:31.079Z,395
2019-01-16T03:56:38.031Z,396
2019-01-16T03:57:44.957Z,397
2019-01-16T03:58:51.897Z,396
2019-01-16T03:59:58.827Z,396
2019-01-16T04:01:06.037Z,396
2019-01-16T04:02:13.230Z,396
2019-01-16T04:03:20.160Z,395
2019-01-16T04:04:26.807Z,396
2019-01-16T04:05:34.034Z,396
2019-01-16T04:06:55.890Z,396
2019-01-16T04:08:03.097Z,396
2019-01-16T04:09:10.292Z,396
2019-01-16T04:10:17.505Z,395
2019-01-16T04:11:24.183Z,396
2019-01-16T04:12:31.400Z,397
2019-01-16T04:13:38.598Z,397
2019-01-16T04:14:45.810Z,396
2019-01-16T04:15:53.014Z,396
2019-01-16T04:17:00.326Z,396
2019-01-16T04:18:07.530Z,396
2019-01-16T04:19:22.573Z,396
2019-01-16T04:20:29.500Z,396
2019-01-16T04:21:36.423Z,397
2019-01-16T04:22:43.627Z,397
2019-01-16T04:23:50.843Z,397
2019-01-16T04:24:58.050Z,397
2019-01-16T04:26:05.273Z,397
2019-01-16T04:27:12.508Z,396
2019-01-16T04:28:19.726Z,397
2019-01-16T04:29:26.939Z,397
2019-01-16T04:30:34.141Z,397
2019-01-16T04:31:41.354Z,396
2019-01-16T04:32:48.562Z,397
2019-01-16T04:33:55.763Z,398
2019-01-16T04:35:02.958Z,399
2019-01-16T04:36:10.159Z,397
2019-01-16T04:37:17.357Z,397
2019-01-16T04:38:24.294Z,397
2019-01-16T04:39:31.506Z,397
2019-01-16T04:40:38.702Z,397
2019-01-16T04:41:45.928Z,397
2019-01-16T04:42:52.883Z,397
2019-01-16T04:44:00.090Z,397
2019-01-16T04:45:07.297Z,396
2019-01-16T04:46:14.497Z,396
2019-01-16T04:47:21.695Z,397
2019-01-16T04:48:28.907Z,396
2019-01-16T04:49:35.832Z,397
2019-01-16T04:50:42.500Z,396
2019-01-16T04:51:49.715Z,395
2019-01-16T04:52:56.921Z,396
2019-01-16T04:54:04.125Z,397
2019-01-16T04:55:11.335Z,396
2019-01-16T04:56:17.977Z,397
2019-01-16T04:57:25.176Z,397
2019-01-16T04:58:32.386Z,397
2019-01-16T04:59:39.594Z,397
2019-01-16T05:00:46.799Z,396
2019-01-16T05:01:54.022Z,396
2019-01-16T05:03:00.956Z,397
2019-01-16T05:04:08.175Z,397
2019-01-16T05:05:14.830Z,397
2019-01-16T05:06:21.749Z,398
2019-01-16T05:07:28.940Z,398
2019-01-16T05:08:36.148Z,398
2019-01-16T05:09:43.347Z,397
2019-01-16T05:10:50.548Z,396
2019-01-16T05:11:57.480Z,396
2019-01-16T05:13:04.692Z,397
2019-01-16T05:14:11.895Z,396
2019-01-16T05:15:18.822Z,397
2019-01-16T05:16:26.023Z,396
2019-01-16T05:17:32.957Z,397
2019-01-16T05:18:42.109Z,397
2019-01-16T05:19:49.331Z,396
2019-01-16T05:20:56.536Z,397
2019-01-16T05:22:03.756Z,396
2019-01-16T05:23:10.681Z,397
2019-01-16T05:24:17.880Z,397
2019-01-16T05:25:25.090Z,396
2019-01-16T05:26:32.305Z,396
2019-01-16T05:27:39.228Z,396
2019-01-16T05:28:46.439Z,397
2019-01-16T05:29:53.687Z,397
2019-01-16T05:31:00.900Z,397
2019-01-16T05:32:08.103Z,397
2019-01-16T05:33:15.322Z,397
2019-01-16T05:34:22.525Z,397
2019-01-16T05:35:29.727Z,396
2019-01-16T05:36:36.651Z,397
2019-01-16T05:37:43.946Z,398
2019-01-16T05:38:51.131Z,398
2019-01-16T05:39:58.342Z,398
2019-01-16T05:41:05.545Z,398
2019-01-16T05:42:12.756Z,397
2019-01-16T05:43:19.960Z,397
2019-01-16T05:44:26.889Z,397
2019-01-16T05:45:34.092Z,398
2019-01-16T05:46:41.307Z,398
2019-01-16T05:47:48.527Z,398
2019-01-16T05:48:55.740Z,397
2019-01-16T05:50:02.947Z,397
2019-01-16T05:51:09.873Z,397
2019-01-16T05:52:16.826Z,396
2019-01-16T05:53:23.751Z,397
2019-01-16T05:54:30.958Z,398
2019-01-16T05:55:38.172Z,397
2019-01-16T05:56:45.373Z,397
2019-01-16T05:57:52.594Z,398
2019-01-16T05:58:59.808Z,398
2019-01-16T06:00:07.029Z,397
2019-01-16T06:01:14.247Z,397
2019-01-16T06:02:21.175Z,397
2019-01-16T06:03:30.217Z,397
2019-01-16T06:04:37.426Z,397
2019-01-16T06:05:44.362Z,398
2019-01-16T06:06:51.593Z,397
2019-01-16T06:07:58.528Z,397
2019-01-16T06:09:05.749Z,398
2019-01-16T06:10:12.959Z,398
2019-01-16T06:11:20.166Z,397
2019-01-16T06:12:27.090Z,397
2019-01-16T06:13:34.303Z,398
2019-01-16T06:14:41.508Z,397
2019-01-16T06:15:48.726Z,396
2019-01-16T06:16:55.695Z,398
2019-01-16T06:18:02.899Z,397
2019-01-16T06:19:09.830Z,398
2019-01-16T06:20:17.039Z,397
2019-01-16T06:21:24.030Z,396
2019-01-16T06:22:31.539Z,397
2019-01-16T06:23:38.739Z,397
2019-01-16T06:24:45.961Z,396
2019-01-16T06:25:53.161Z,397
2019-01-16T06:27:00.384Z,397
2019-01-16T06:28:07.595Z,398
2019-01-16T06:29:14.799Z,397
2019-01-16T06:30:21.999Z,396
2019-01-16T06:31:29.205Z,397
2019-01-16T06:32:36.404Z,397
2019-01-16T06:33:43.338Z,396
2019-01-16T06:34:50.533Z,397
2019-01-16T06:35:57.748Z,397
2019-01-16T06:37:05.192Z,397
2019-01-16T06:38:12.391Z,398
2019-01-16T06:39:19.603Z,398
2019-01-16T06:40:26.812Z,397
2019-01-16T06:41:34.025Z,397
2019-01-16T06:42:41.235Z,397
2019-01-16T06:43:48.437Z,397
2019-01-16T06:44:55.356Z,397
2019-01-16T06:46:02.274Z,397
2019-01-16T06:47:09.481Z,397
2019-01-16T06:48:16.683Z,397
2019-01-16T06:49:23.892Z,397
2019-01-16T06:50:31.091Z,397
2019-01-16T06:51:38.307Z,397
2019-01-16T06:52:45.510Z,397
2019-01-16T06:53:52.447Z,398
2019-01-16T06:54:58.819Z,398
2019-01-16T06:56:06.027Z,398
2019-01-16T06:57:12.956Z,399
2019-01-16T06:58:20.161Z,397
2019-01-16T06:59:26.828Z,398
2019-01-16T07:00:34.025Z,397
2019-01-16T07:01:40.962Z,398
2019-01-16T07:02:48.189Z,397
2019-01-16T07:03:55.394Z,397
2019-01-16T07:05:02.333Z,397
2019-01-16T07:06:09.534Z,396
2019-01-16T07:07:16.754Z,397
2019-01-16T07:08:23.953Z,397
2019-01-16T07:09:30.881Z,397
2019-01-16T07:10:37.534Z,398
2019-01-16T07:11:44.735Z,398
2019-01-16T07:12:51.931Z,397
2019-01-16T07:13:59.152Z,398
2019-01-16T07:15:06.091Z,396
2019-01-16T07:16:13.051Z,398
2019-01-16T07:17:20.260Z,397
2019-01-16T07:18:27.210Z,396
2019-01-16T07:19:34.437Z,396
2019-01-16T07:20:41.643Z,397
2019-01-16T07:21:48.847Z,397
2019-01-16T07:22:56.051Z,398
2019-01-16T07:24:03.248Z,398
2019-01-16T07:25:10.465Z,398
2019-01-16T07:26:17.663Z,398
2019-01-16T07:27:24.870Z,399
2019-01-16T07:28:32.081Z,398
2019-01-16T07:29:39.295Z,399
2019-01-16T07:30:46.219Z,398
2019-01-16T07:31:53.422Z,398
2019-01-16T07:33:00.624Z,399
2019-01-16T07:34:07.833Z,399
2019-01-16T07:35:15.034Z,399
2019-01-16T07:36:22.252Z,398
2019-01-16T07:37:29.459Z,398
2019-01-16T07:38:36.700Z,398
2019-01-16T07:39:43.622Z,398
2019-01-16T07:40:50.845Z,398
2019-01-16T07:41:58.045Z,398
2019-01-16T07:43:05.252Z,398
2019-01-16T07:44:12.458Z,398
2019-01-16T07:45:19.381Z,399
2019-01-16T07:46:26.306Z,398
2019-01-16T07:47:33.525Z,398
2019-01-16T07:48:40.724Z,398
2019-01-16T07:49:47.940Z,399
2019-01-16T07:50:54.865Z,398
2019-01-16T07:52:02.084Z,398
2019-01-16T07:53:09.297Z,398
2019-01-16T07:54:16.221Z,398
2019-01-16T07:55:23.417Z,397
2019-01-16T07:56:30.360Z,398
2019-01-16T07:57:37.560Z,397
2019-01-16T07:58:44.776Z,396
2019-01-16T07:59:51.982Z,397
2019-01-16T08:00:59.201Z,397
2019-01-16T08:02:06.403Z,396
2019-01-16T08:03:13.332Z,396
2019-01-16T08:04:20.532Z,396
2019-01-16T08:05:27.451Z,396
2019-01-16T08:06:34.664Z,396
2019-01-16T08:07:41.886Z,396
2019-01-16T08:08:49.131Z,396
2019-01-16T08:09:56.336Z,395
2019-01-16T08:11:03.238Z,396
2019-01-16T08:12:10.457Z,396
2019-01-16T08:13:17.670Z,396
2019-01-16T08:14:24.871Z,395
2019-01-16T08:15:32.080Z,396
2019-01-16T08:16:39.000Z,395
2019-01-16T08:17:46.264Z,395
2019-01-16T08:18:53.462Z,395
2019-01-16T08:20:00.233Z,395
2019-01-16T08:21:07.420Z,396
2019-01-16T08:22:14.345Z,395
2019-01-16T08:23:21.548Z,395
2019-01-16T08:24:28.759Z,396
2019-01-16T08:25:35.977Z,394
2019-01-16T08:26:43.180Z,394
2019-01-16T08:27:51.275Z,395
2019-01-16T08:28:58.480Z,394
2019-01-16T08:30:05.412Z,395
2019-01-16T08:31:12.611Z,394
2019-01-16T08:32:19.536Z,394
2019-01-16T08:33:26.751Z,394
2019-01-16T08:34:33.699Z,394
2019-01-16T08:35:40.900Z,394
2019-01-16T08:36:48.121Z,395
2019-01-16T08:37:55.320Z,394
2019-01-16T08:39:02.249Z,394
2019-01-16T08:40:09.181Z,393
2019-01-16T08:41:16.381Z,393
2019-01-16T08:42:23.321Z,394
2019-01-16T08:43:30.532Z,394
2019-01-16T08:44:39.179Z,394
2019-01-16T08:45:46.109Z,394
2019-01-16T08:46:53.323Z,394
2019-01-16T08:48:00.527Z,394
2019-01-16T08:49:07.734Z,394
2019-01-16T08:50:14.944Z,394
2019-01-16T08:51:22.163Z,392
2019-01-16T08:52:29.375Z,393
2019-01-16T08:53:36.310Z,394
2019-01-16T08:54:43.249Z,393
2019-01-16T08:55:50.454Z,393
2019-01-16T08:56:57.653Z,393
2019-01-16T08:58:04.861Z,393
2019-01-16T08:59:12.074Z,393
2019-01-16T09:00:19.280Z,392
2019-01-16T09:01:33.639Z,393
2019-01-16T09:02:40.844Z,393
2019-01-16T09:03:47.793Z,393
2019-01-16T09:04:54.992Z,393
2019-01-16T09:06:02.212Z,393
2019-01-16T09:07:09.147Z,393
2019-01-16T09:08:16.379Z,393
2019-01-16T09:09:23.585Z,394
2019-01-16T09:10:30.530Z,393
2019-01-16T09:11:37.739Z,393
2019-01-16T09:12:44.944Z,393
2019-01-16T09:13:52.166Z,392
2019-01-16T09:14:59.370Z,393
2019-01-16T09:16:06.582Z,393
2019-01-16T09:17:13.788Z,393
2019-01-16T09:18:20.987Z,393
2019-01-16T09:19:27.932Z,393
2019-01-16T09:20:40.994Z,391
2019-01-16T09:21:48.206Z,391
2019-01-16T09:22:55.417Z,391
2019-01-16T09:24:02.628Z,391
2019-01-16T09:25:09.560Z,391
2019-01-16T09:26:16.761Z,392
2019-01-16T09:27:23.968Z,391
2019-01-16T09:28:31.176Z,392
2019-01-16T09:29:38.369Z,393
2019-01-16T09:30:45.309Z,393
2019-01-16T09:31:52.511Z,391
2019-01-16T09:32:59.730Z,392
2019-01-16T09:34:06.932Z,392
2019-01-16T09:35:14.138Z,392
2019-01-16T09:36:21.067Z,392
2019-01-16T09:37:27.995Z,392
2019-01-16T09:38:35.199Z,392
2019-01-16T09:39:42.116Z,393
2019-01-16T09:40:49.042Z,391
2019-01-16T09:41:56.247Z,391
2019-01-16T09:43:03.176Z,391
2019-01-16T09:44:10.101Z,392
2019-01-16T09:45:17.032Z,391
2019-01-16T09:46:24.240Z,392
2019-01-16T09:47:31.444Z,392
2019-01-16T09:48:38.642Z,392
2019-01-16T09:49:45.854Z,393
2019-01-16T09:50:53.055Z,393
2019-01-16T09:52:00.278Z,393
2019-01-16T09:53:07.202Z,393
2019-01-16T09:54:14.400Z,394
2019-01-16T09:55:21.599Z,393
2019-01-16T09:56:28.527Z,394
2019-01-16T09:57:35.729Z,393
2019-01-16T09:58:42.939Z,394
2019-01-16T09:59:50.150Z,394
2019-01-16T10:00:57.353Z,393
2019-01-16T10:02:04.591Z,394
2019-01-16T10:03:11.800Z,394
2019-01-16T10:04:19.008Z,394
2019-01-16T10:05:26.224Z,393
2019-01-16T10:06:33.438Z,394
2019-01-16T10:07:40.647Z,393
2019-01-16T10:08:47.845Z,393
2019-01-16T10:09:54.773Z,393
2019-01-16T10:11:01.719Z,393
2019-01-16T10:12:08.927Z,394
2019-01-16T10:13:16.141Z,393
2019-01-16T10:14:23.071Z,394
2019-01-16T10:15:30.025Z,393
2019-01-16T10:16:37.240Z,393
2019-01-16T10:17:44.468Z,393
2019-01-16T10:18:51.675Z,393
2019-01-16T10:19:58.897Z,392
2019-01-16T10:21:06.096Z,393
2019-01-16T10:22:13.047Z,392
2019-01-16T10:23:19.976Z,393
2019-01-16T10:24:27.175Z,392
2019-01-16T10:25:34.393Z,393
2019-01-16T10:26:41.593Z,393
2019-01-16T10:27:48.743Z,392
2019-01-16T10:28:55.947Z,393
2019-01-16T10:30:03.161Z,393
2019-01-16T10:31:09.817Z,393
2019-01-16T10:32:17.023Z,393
2019-01-16T10:33:23.958Z,392
2019-01-16T10:34:31.172Z,393
2019-01-16T10:35:38.375Z,392
2019-01-16T10:36:45.295Z,394
2019-01-16T10:37:52.503Z,392
2019-01-16T10:38:59.713Z,393
2019-01-16T10:40:06.938Z,392
2019-01-16T10:41:13.868Z,393
2019-01-16T10:42:21.098Z,391
2019-01-16T10:43:28.295Z,391
2019-01-16T10:44:35.237Z,391
2019-01-16T10:45:42.456Z,392
2019-01-16T10:46:49.663Z,390
2019-01-16T10:47:56.857Z,391
2019-01-16T10:49:03.787Z,390
2019-01-16T10:50:10.987Z,389
2019-01-16T10:51:18.214Z,389
2019-01-16T10:52:25.146Z,389
2019-01-16T10:53:32.062Z,389
2019-01-16T10:54:38.996Z,389
2019-01-16T10:55:46.222Z,390
2019-01-16T10:56:53.433Z,388
2019-01-16T10:58:00.654Z,388
2019-01-16T10:59:07.857Z,389
2019-01-16T11:00:14.787Z,388
2019-01-16T11:01:21.987Z,389
2019-01-16T11:02:28.935Z,390
2019-01-16T11:03:35.858Z,389
2019-01-16T11:04:43.075Z,389
2019-01-16T11:05:50.279Z,389
2019-01-16T11:06:57.484Z,388
2019-01-16T11:08:04.694Z,388
2019-01-16T11:09:11.927Z,389
2019-01-16T11:10:19.138Z,390
2019-01-16T11:11:26.370Z,389
2019-01-16T11:12:33.311Z,389
2019-01-16T11:13:40.524Z,389
2019-01-16T11:14:47.739Z,390
2019-01-16T11:15:54.945Z,390
2019-01-16T11:17:02.156Z,389
2019-01-16T11:18:09.370Z,390
2019-01-16T11:19:16.583Z,388
2019-01-16T11:20:23.810Z,388
2019-01-16T11:21:31.026Z,389
2019-01-16T11:22:38.233Z,390
2019-01-16T11:23:45.430Z,390
2019-01-16T11:24:52.382Z,391
2019-01-16T11:25:59.589Z,391
2019-01-16T11:27:06.812Z,390
2019-01-16T11:28:14.018Z,390
2019-01-16T11:29:20.970Z,390
2019-01-16T11:30:28.182Z,391
2019-01-16T11:31:35.145Z,390
2019-01-16T11:32:42.353Z,389
2019-01-16T11:33:49.551Z,391
2019-01-16T11:34:56.755Z,390
2019-01-16T11:36:03.695Z,389
2019-01-16T11:37:10.896Z,390
2019-01-16T11:38:18.114Z,391
2019-01-16T11:39:25.321Z,390
2019-01-16T11:40:32.537Z,392
2019-01-16T11:41:39.469Z,391
2019-01-16T11:42:46.417Z,390
2019-01-16T11:43:53.081Z,391
2019-01-16T11:45:00.007Z,391
2019-01-16T11:46:07.214Z,391
2019-01-16T11:47:14.196Z,391
2019-01-16T11:48:21.408Z,390
2019-01-16T11:49:28.363Z,389
2019-01-16T11:50:35.581Z,389
2019-01-16T11:51:42.796Z,387
2019-01-16T11:52:50.005Z,388
2019-01-16T11:53:56.937Z,388
2019-01-16T11:55:03.871Z,388
2019-01-16T11:56:10.828Z,388
2019-01-16T11:57:18.035Z,389
2019-01-16T11:58:25.260Z,388
2019-01-16T11:59:32.468Z,387
2019-01-16T12:00:39.689Z,387
2019-01-16T12:01:46.915Z,388
2019-01-16T12:02:54.143Z,389
2019-01-16T12:04:01.355Z,389
2019-01-16T12:05:08.807Z,388
2019-01-16T12:06:16.023Z,389
2019-01-16T12:07:23.472Z,388
2019-01-16T12:08:30.700Z,389
2019-01-16T12:09:37.660Z,390
2019-01-16T12:10:44.866Z,388
2019-01-16T12:11:52.101Z,388
2019-01-16T12:12:59.038Z,389
2019-01-16T12:14:06.268Z,389
2019-01-16T12:15:13.504Z,389
2019-01-16T12:16:20.971Z,389
2019-01-16T12:17:29.707Z,390
2019-01-16T12:18:36.985Z,389
2019-01-16T12:19:43.941Z,390
2019-01-16T12:20:51.151Z,390
2019-01-16T12:21:58.361Z,390
2019-01-16T12:23:05.593Z,388
2019-01-16T12:24:12.808Z,388
2019-01-16T12:25:20.046Z,388
2019-01-16T12:26:27.280Z,388
2019-01-16T12:27:34.239Z,388
2019-01-16T12:28:41.465Z,387
2019-01-16T12:29:48.407Z,388
2019-01-16T12:30:55.639Z,389
2019-01-16T12:32:03.093Z,388
2019-01-16T12:33:10.299Z,388
2019-01-16T12:34:17.741Z,388
2019-01-16T12:35:24.423Z,388
2019-01-16T12:36:31.634Z,388
2019-01-16T12:37:38.868Z,388
2019-01-16T12:38:46.085Z,388
2019-01-16T12:39:53.045Z,387
2019-01-16T12:41:00.292Z,387
2019-01-16T12:42:07.519Z,386
2019-01-16T12:43:14.963Z,388
2019-01-16T12:44:22.169Z,387
2019-01-16T12:45:29.611Z,387
2019-01-16T12:46:36.815Z,388
2019-01-16T12:47:44.053Z,388
2019-01-16T12:48:51.269Z,389
2019-01-16T12:49:58.496Z,389
2019-01-16T12:51:05.703Z,388
2019-01-16T12:52:12.670Z,389
2019-01-16T12:53:19.869Z,389
2019-01-16T12:54:27.042Z,389
2019-01-16T12:55:34.267Z,388
2019-01-16T12:56:41.480Z,388
2019-01-16T12:57:48.696Z,388
2019-01-16T12:58:55.922Z,388
2019-01-16T13:00:03.134Z,388
2019-01-16T13:01:10.097Z,387
2019-01-16T13:02:17.314Z,387
2019-01-16T13:03:24.522Z,388
2019-01-16T13:04:31.487Z,388
2019-01-16T13:05:38.699Z,388
2019-01-16T13:06:45.909Z,388
2019-01-16T13:07:53.106Z,388
2019-01-16T13:09:00.040Z,389
2019-01-16T13:10:07.479Z,389
2019-01-16T13:11:14.692Z,389
2019-01-16T13:12:21.926Z,389
2019-01-16T13:13:29.136Z,389
2019-01-16T13:14:36.338Z,389
2019-01-16T13:15:43.559Z,389
2019-01-16T13:16:50.788Z,389
2019-01-16T13:17:58.005Z,389
2019-01-16T13:19:04.957Z,389
2019-01-16T13:20:11.891Z,388
2019-01-16T13:21:19.576Z,389
2019-01-16T13:22:26.513Z,387
2019-01-16T13:23:33.950Z,387
2019-01-16T13:24:41.167Z,389
2019-01-16T13:25:48.415Z,388
2019-01-16T13:26:55.366Z,388
2019-01-16T13:28:02.570Z,388
2019-01-16T13:29:09.518Z,388
2019-01-16T13:30:16.180Z,388
2019-01-16T13:31:23.117Z,389
2019-01-16T13:32:30.075Z,388
2019-01-16T13:33:37.315Z,388
2019-01-16T13:34:44.524Z,387
2019-01-16T13:35:51.728Z,388
2019-01-16T13:36:58.941Z,388
2019-01-16T13:38:06.141Z,389
2019-01-16T13:39:13.353Z,388
2019-01-16T13:40:20.566Z,388
2019-01-16T13:41:27.785Z,389
2019-01-16T13:42:34.722Z,389
2019-01-16T13:43:41.396Z,389
2019-01-16T13:44:48.599Z,390
2019-01-16T13:45:55.818Z,389
2019-01-16T13:47:03.056Z,388
2019-01-16T13:48:10.259Z,388
2019-01-16T13:49:17.203Z,388
2019-01-16T13:50:24.156Z,388
2019-01-16T13:51:31.364Z,389
2019-01-16T13:52:38.528Z,389
2019-01-16T13:53:45.741Z,389
2019-01-16T13:54:52.700Z,388
2019-01-16T13:55:59.626Z,388
2019-01-16T13:57:06.831Z,389
2019-01-16T13:58:14.058Z,389
2019-01-16T13:59:21.286Z,389
2019-01-16T14:00:28.512Z,389
2019-01-16T14:01:35.714Z,390
2019-01-16T14:02:42.923Z,390
2019-01-16T14:03:50.135Z,389
2019-01-16T14:04:57.072Z,389
2019-01-16T14:06:04.510Z,390
2019-01-16T14:07:11.727Z,390
2019-01-16T14:08:18.930Z,391
2019-01-16T14:09:26.187Z,390
2019-01-16T14:10:33.390Z,390
2019-01-16T14:11:40.594Z,390
2019-01-16T14:12:47.525Z,390
2019-01-16T14:14:01.119Z,391
2019-01-16T14:15:08.335Z,391
2019-01-16T14:16:15.537Z,391
2019-01-16T14:17:22.741Z,391
2019-01-16T14:18:29.400Z,390
2019-01-16T14:19:36.338Z,390
2019-01-16T14:20:43.550Z,390
2019-01-16T14:21:54.139Z,391
2019-01-16T14:23:01.071Z,391
2019-01-16T14:24:08.294Z,391
2019-01-16T14:25:15.500Z,392
2019-01-16T14:26:22.712Z,391
2019-01-16T14:27:29.392Z,392
2019-01-16T14:28:36.324Z,391
2019-01-16T14:29:43.532Z,391
2019-01-16T14:30:50.468Z,390
2019-01-16T14:31:57.423Z,391
2019-01-16T14:33:04.369Z,390
2019-01-16T14:34:11.575Z,390
2019-01-16T14:35:18.781Z,390
2019-01-16T14:36:25.996Z,391
2019-01-16T14:37:33.210Z,390
2019-01-16T14:38:40.426Z,391
2019-01-16T14:39:47.359Z,391
2019-01-16T14:40:54.318Z,391
2019-01-16T14:42:01.524Z,391
2019-01-16T14:43:08.732Z,392
2019-01-16T14:44:15.672Z,391
2019-01-16T14:45:22.869Z,391
2019-01-16T14:46:29.551Z,391
2019-01-16T14:47:36.779Z,391
2019-01-16T14:48:43.999Z,391
2019-01-16T14:49:51.203Z,392
2019-01-16T14:50:58.422Z,391
2019-01-16T14:52:05.631Z,391
2019-01-16T14:53:12.844Z,391
2019-01-16T14:54:20.061Z,391
2019-01-16T14:55:26.990Z,392
2019-01-16T14:56:34.198Z,393
2019-01-16T14:57:41.429Z,393
2019-01-16T14:58:48.633Z,394
2019-01-16T14:59:55.847Z,395
2019-01-16T15:01:02.773Z,394
2019-01-16T15:02:09.997Z,394
2019-01-16T15:03:17.199Z,394
2019-01-16T15:04:24.402Z,395
2019-01-16T15:05:31.606Z,395
2019-01-16T15:06:38.817Z,396
2019-01-16T15:07:45.750Z,397
2019-01-16T15:08:52.950Z,396
2019-01-16T15:10:00.210Z,397
2019-01-16T15:11:07.418Z,396
2019-01-16T15:12:14.621Z,396
2019-01-16T15:13:21.845Z,397
2019-01-16T15:14:29.047Z,397
2019-01-16T15:15:36.251Z,398
2019-01-16T15:16:43.454Z,398
2019-01-16T15:17:50.658Z,397
2019-01-16T15:18:57.865Z,398
2019-01-16T15:20:04.794Z,398
2019-01-16T15:21:12.008Z,399
2019-01-16T15:22:19.209Z,399
2019-01-16T15:23:26.414Z,399
2019-01-16T15:24:33.619Z,399
2019-01-16T15:25:41.494Z,400